Zacatecas, México

11:28 PM CDT en Agosto 01, 2014 (GMT -0500)
Gen Leobardo C Ruiz International (MMZC) Alt 7139 ft | 22.90 °N, 102.69 °W | Change Station

Current weather conditions updated 43 minutes ago

Mostly Cloudy
Muy nublado
66 ° F
Sensación térmica 66 ° F
N
7
Viento Variable Viento desde Sur

Mañana se prevé un día Más frío que hoy.

Hoy
Alta -- | Baja -- ° F
--% Posibilidad de precipitaciones
Ayer
Alta -- | Baja -- ° F
Precip. -- pul
7:21 AM 8:31 PM
Creciente, 32% visible
Presión 30.30 pul
Visibilidad 10.0 Millas
Nubes Muy nublado 4000 ft
Punto de rocío 48 ° F
Humedad 52%
Precipitaciones 0.00 pul
Espesor de la nieve No disponible.
UV 0 de una escala de 12
Polen No disponible.
Calidad del aire No disponible.
Flu Activity No disponible.
METAR MMZC 020345Z 19006KT 10SM BKN040 19/09 A3030 RMK 8/400

More Conditions Fewer Conditions

Presión 30.30 pul
Visibilidad 10.0 Millas
Nubes Muy nublado 4000 ft
Punto de rocío 48 ° F
Humedad 52%
Precipitaciones 0.00 pul
Espesor de la nieve No disponible.
UV 0 de una escala de 12
Polen No disponible.
Calidad del aire No disponible.
Flu Activity No disponible.
METAR MMZC 020345Z 19006KT 10SM BKN040 19/09 A3030 RMK 8/400

More Conditions Fewer Conditions

10-Day Weather Forecast

Almanac

Astronomía

Aug. 01, 2014 Salida Puesta
Hora real 7:21 AM CDT 8:31 PM CDT
Crepúsculo civil 6:57 AM CDT 8:55 PM CDT
Crepúsculo náutico 6:28 AM CDT 9:23 PM CDT
Crepúsculo astronómico 5:59 AM CDT 9:53 PM CDT
Luna 12:04 PM CDT (8/1) Sin puesta de luna
Horas de luz 13h 57m
Horas de luz
13h 09m
Tomorrow will be 0m 59s shorter.
Creciente, 32% of the Moon is Illuminated
Ago 2
Creciente
Ago 3
Cuarto creciente
Ago 10
Luna llena
Ago 17
Cuarto menguante
Ago 25
Nueva

Extremos de hoy

Máximos del país Bajas del país

Community

WunderPhotos

Upload Photos

1,739,820 ¡fotos cargadas!

Nearby

Calidad del aire

Not available.

Grosos de nieve

Not available.

Actividad de terremotos

Ciudad Distance Mag. Tiempo y dato
No hay informes recientes de la actividad sísmica.
Magnitud mínima muestra es 2,5.

Temperaturas de aguas costeras

Lugar Temperatura
Sin partes meteorológicos de las estaciones

Estaciones meteorológicas cercanas

No hay estaciones meteorológicas personales en esta zona.